createdAt,value
2023-03-10T00:00:34.279Z,11.60
2023-03-10T00:03:01.081Z,11.50
2023-03-10T00:05:27.954Z,11.30
2023-03-10T00:07:55.071Z,11.30
2023-03-10T00:10:22.308Z,11.20
2023-03-10T00:12:49.085Z,11.20
2023-03-10T00:15:15.931Z,11.20
2023-03-10T00:17:42.815Z,11.10
2023-03-10T00:20:12.031Z,11.10
2023-03-10T00:22:39.925Z,11.00
2023-03-10T00:25:08.489Z,10.90
2023-03-10T00:27:35.582Z,10.90
2023-03-10T00:30:02.913Z,10.80
2023-03-10T00:32:29.898Z,10.70
2023-03-10T00:34:56.859Z,10.70
2023-03-10T00:37:23.731Z,10.60
2023-03-10T00:39:52.496Z,10.50
2023-03-10T00:42:19.745Z,10.40
2023-03-10T00:44:47.562Z,10.50
2023-03-10T00:47:14.395Z,10.40
2023-03-10T00:49:41.477Z,10.30
2023-03-10T00:52:08.333Z,10.30
2023-03-10T00:54:35.195Z,10.10
2023-03-10T00:57:08.448Z,10.20
2023-03-10T00:59:48.037Z,10.30
2023-03-10T01:02:16.967Z,10.40
2023-03-10T01:04:43.896Z,10.50
2023-03-10T01:07:10.749Z,10.70
2023-03-10T01:09:37.599Z,10.80
2023-03-10T01:12:04.507Z,10.90
2023-03-10T01:14:32.344Z,10.90
2023-03-10T01:16:59.648Z,11.10
2023-03-10T01:19:26.497Z,11.10
2023-03-10T01:21:53.226Z,11.20
2023-03-10T01:24:20.109Z,11.30
2023-03-10T01:26:46.825Z,11.40
2023-03-10T01:29:13.696Z,11.40
2023-03-10T01:31:42.017Z,11.30
2023-03-10T01:34:09.027Z,11.20
2023-03-10T01:36:35.837Z,11.10
2023-03-10T01:39:02.792Z,11.10
2023-03-10T01:41:29.802Z,11.10
2023-03-10T01:43:57.491Z,11.10
2023-03-10T01:46:32.092Z,11.10
2023-03-10T01:49:04.049Z,11.20
2023-03-10T01:51:34.168Z,11.30
2023-03-10T01:54:04.115Z,11.40
2023-03-10T01:56:31.246Z,11.60
2023-03-10T01:58:58.144Z,11.60
2023-03-10T02:01:25.298Z,11.50
2023-03-10T02:04:00.642Z,11.50
2023-03-10T02:06:27.946Z,11.60
2023-03-10T02:08:58.441Z,11.60
2023-03-10T02:11:25.349Z,11.60
2023-03-10T02:13:52.821Z,11.80
2023-03-10T02:16:20.696Z,11.80
2023-03-10T02:18:49.279Z,11.70
2023-03-10T02:21:31.434Z,11.60
2023-03-10T02:24:13.355Z,11.40
2023-03-10T02:26:43.395Z,11.30
2023-03-10T02:29:18.350Z,11.20
2023-03-10T02:31:45.784Z,11.10
2023-03-10T02:34:13.316Z,11.00
2023-03-10T02:36:40.166Z,10.90
2023-03-10T02:39:06.982Z,10.80
2023-03-10T02:41:37.389Z,10.60
2023-03-10T02:44:08.529Z,10.50
2023-03-10T02:46:35.534Z,10.40
2023-03-10T02:49:06.097Z,10.20
2023-03-10T02:51:41.773Z,10.20
2023-03-10T02:54:09.595Z,10.10
2023-03-10T02:56:38.327Z,10.00
2023-03-10T02:59:06.548Z,10.00
2023-03-10T03:01:34.079Z,10.10
2023-03-10T03:04:01.618Z,10.10
2023-03-10T03:06:29.562Z,10.10
2023-03-10T03:08:56.374Z,10.10
2023-03-10T03:11:23.338Z,10.10
2023-03-10T03:13:50.143Z,10.20
2023-03-10T03:16:17.047Z,10.30
2023-03-10T03:18:44.058Z,10.40
2023-03-10T03:21:15.799Z,10.40
2023-03-10T03:23:43.280Z,10.50
2023-03-10T03:26:21.014Z,10.40
2023-03-10T03:28:48.274Z,10.30
2023-03-10T03:31:24.558Z,10.20
2023-03-10T03:33:51.452Z,10.00
2023-03-10T03:36:18.577Z,9.90
2023-03-10T03:38:45.455Z,9.90
2023-03-10T03:41:12.222Z,9.90
2023-03-10T03:43:39.125Z,9.90
2023-03-10T03:46:06.392Z,10.00
2023-03-10T03:48:34.880Z,10.00
2023-03-10T03:51:02.592Z,10.20
2023-03-10T03:53:30.042Z,10.30
2023-03-10T03:55:57.253Z,10.40
2023-03-10T03:58:24.230Z,10.30
2023-03-10T05:01:26.448Z,10.00
2023-03-10T05:03:53.265Z,10.00
2023-03-10T05:06:22.008Z,10.00
2023-03-10T05:08:48.789Z,9.90
2023-03-10T05:11:15.631Z,10.00
2023-03-10T05:13:42.700Z,9.90
2023-03-10T05:16:14.883Z,9.80
2023-03-10T05:18:41.970Z,9.70
2023-03-10T05:21:08.935Z,9.70
2023-03-10T05:23:35.838Z,9.70
2023-03-10T05:26:04.897Z,9.80
2023-03-10T05:28:32.430Z,9.80
2023-03-10T05:30:59.528Z,9.80
2023-03-10T05:33:27.707Z,9.80
2023-03-10T05:35:55.884Z,9.80
2023-03-10T05:38:22.916Z,9.80
2023-03-10T05:40:49.792Z,9.90
2023-03-10T05:43:17.700Z,9.80
2023-03-10T05:45:44.825Z,9.90
2023-03-10T05:48:11.581Z,9.90
2023-03-10T05:50:38.335Z,9.80
2023-03-10T05:53:05.083Z,9.90
2023-03-10T05:55:31.790Z,9.90
2023-03-10T05:57:58.704Z,9.90
2023-03-10T06:00:25.697Z,9.80
2023-03-10T06:02:52.458Z,9.60
2023-03-10T06:05:19.310Z,9.60
2023-03-10T06:07:46.351Z,9.60
2023-03-10T06:10:13.219Z,9.60
2023-03-10T06:12:40.082Z,9.60
2023-03-10T06:15:07.726Z,9.50
2023-03-10T06:17:34.715Z,9.30
2023-03-10T06:20:02.061Z,9.20
2023-03-10T06:22:31.154Z,9.10
2023-03-10T06:24:58.234Z,9.10
2023-03-10T06:27:25.276Z,9.00
2023-03-10T06:29:52.198Z,9.00
2023-03-10T06:32:19.087Z,9.00
2023-03-10T06:34:45.895Z,9.00
2023-03-10T06:37:12.626Z,9.00
2023-03-10T06:39:40.687Z,9.00
2023-03-10T06:42:08.913Z,9.00
2023-03-10T06:44:36.240Z,9.10
2023-03-10T06:47:05.564Z,9.10
2023-03-10T06:49:33.592Z,9.20
2023-03-10T06:52:01.241Z,9.20
2023-03-10T06:54:28.060Z,9.30
2023-03-10T06:56:54.984Z,9.40
2023-03-10T06:59:22.201Z,9.60
2023-03-10T07:01:49.439Z,9.90
2023-03-10T07:04:16.354Z,10.10
2023-03-10T07:06:43.369Z,10.10
2023-03-10T07:09:10.250Z,10.30
2023-03-10T07:11:37.061Z,10.40
2023-03-10T07:14:03.984Z,10.40
2023-03-10T07:16:30.790Z,10.40
2023-03-10T07:18:57.711Z,10.50
2023-03-10T07:21:24.555Z,10.50
2023-03-10T07:23:51.713Z,10.50
2023-03-10T07:26:19.111Z,10.50
2023-03-10T07:28:46.064Z,10.50
2023-03-10T07:31:15.266Z,10.40
2023-03-10T07:33:42.161Z,10.50
2023-03-10T07:36:12.312Z,10.40
2023-03-10T07:38:39.355Z,10.40
2023-03-10T07:41:11.168Z,10.50
2023-03-10T07:43:38.436Z,10.50
2023-03-10T07:46:07.686Z,10.60
2023-03-10T07:48:34.999Z,10.70
2023-03-10T07:51:02.034Z,11.00
2023-03-10T07:53:29.532Z,10.80
2023-03-10T07:55:56.642Z,10.80
2023-03-10T07:58:24.294Z,10.90
2023-03-10T08:00:59.152Z,11.00
2023-03-10T08:03:28.004Z,11.10
2023-03-10T08:05:55.295Z,11.20
2023-03-10T08:08:23.224Z,11.30
2023-03-10T08:10:50.277Z,11.40
2023-03-10T08:13:17.392Z,11.50
2023-03-10T08:15:44.697Z,11.60
2023-03-10T08:18:11.968Z,11.60
2023-03-10T08:20:40.678Z,11.50
2023-03-10T08:23:07.627Z,11.50
2023-03-10T08:25:34.486Z,11.50
2023-03-10T08:28:01.348Z,11.50
2023-03-10T08:30:28.216Z,11.60
2023-03-10T08:32:55.123Z,11.60
2023-03-10T08:35:22.035Z,11.50
2023-03-10T08:37:48.917Z,11.40
2023-03-10T08:40:16.350Z,11.40
2023-03-10T08:42:46.942Z,11.40
2023-03-10T08:45:15.316Z,11.30
2023-03-10T08:47:42.246Z,11.20
2023-03-10T08:50:12.465Z,11.20
2023-03-10T08:52:39.777Z,11.10
2023-03-10T08:55:08.040Z,11.30
2023-03-10T08:57:34.888Z,11.30
2023-03-10T09:00:02.018Z,11.40
2023-03-10T09:02:29.472Z,11.60
2023-03-10T09:04:56.408Z,11.90
2023-03-10T09:07:23.322Z,12.20
2023-03-10T09:09:50.206Z,12.10
2023-03-10T09:12:16.977Z,12.10
2023-03-10T09:14:43.936Z,12.10
2023-03-10T09:17:11.996Z,12.00
2023-03-10T09:19:38.993Z,12.00
2023-03-10T09:22:05.953Z,12.10
2023-03-10T09:24:33.096Z,12.10
2023-03-10T09:26:59.950Z,12.00
2023-03-10T09:29:42.223Z,12.10
2023-03-10T09:32:10.199Z,12.10
2023-03-10T09:34:37.212Z,12.20
2023-03-10T09:37:06.839Z,12.60
2023-03-10T09:39:35.022Z,13.30
2023-03-10T09:42:14.815Z,14.00
2023-03-10T09:44:57.265Z,14.60
2023-03-10T09:47:35.822Z,14.50
2023-03-10T09:50:20.066Z,14.50
2023-03-10T09:53:03.102Z,14.20
2023-03-10T09:55:36.689Z,13.90
2023-03-10T09:58:05.706Z,14.50
2023-03-10T10:00:38.570Z,15.20
2023-03-10T10:03:19.099Z,15.70
2023-03-10T10:05:48.446Z,15.30
2023-03-10T10:08:24.832Z,14.10
2023-03-10T10:10:55.857Z,13.10
2023-03-10T10:13:25.289Z,13.00
2023-03-10T10:16:24.378Z,13.00
2023-03-10T10:19:03.367Z,12.80
2023-03-10T10:21:49.717Z,12.50
2023-03-10T10:24:18.266Z,12.60
2023-03-10T10:26:45.105Z,14.20
2023-03-10T10:29:18.584Z,14.90
2023-03-10T10:32:07.965Z,15.00
2023-03-10T10:34:37.314Z,15.10
2023-03-10T10:37:25.114Z,14.40
2023-03-10T10:39:54.077Z,14.00
2023-03-10T10:42:26.615Z,13.90
2023-03-10T10:44:57.287Z,14.10
2023-03-10T10:47:28.212Z,14.00
2023-03-10T10:50:08.515Z,13.80
2023-03-10T10:52:35.365Z,13.50
2023-03-10T10:55:02.508Z,13.00
2023-03-10T10:57:33.932Z,13.00
2023-03-10T11:00:25.136Z,13.00
2023-03-10T11:02:52.790Z,12.70
2023-03-10T11:05:24.012Z,12.50
2023-03-10T11:07:52.175Z,12.50
2023-03-10T11:10:21.395Z,12.50
2023-03-10T11:13:05.701Z,12.80
2023-03-10T11:15:37.327Z,12.70
2023-03-10T11:18:10.182Z,13.10
2023-03-10T11:20:39.193Z,13.10
2023-03-10T11:23:21.469Z,13.10
2023-03-10T11:26:04.866Z,12.80
2023-03-10T11:28:48.361Z,12.70
2023-03-10T11:31:30.587Z,12.70
2023-03-10T11:34:20.671Z,12.80
2023-03-10T11:36:57.844Z,13.30
2023-03-10T11:39:49.139Z,13.20
2023-03-10T11:42:32.668Z,13.10
2023-03-10T11:45:14.828Z,12.70
2023-03-10T11:47:57.324Z,12.30
2023-03-10T11:56:53.122Z,12.00
2023-03-10T11:59:22.225Z,12.00
2023-03-10T12:02:08.718Z,12.00
2023-03-10T12:04:51.568Z,12.00
2023-03-10T12:10:02.671Z,12.00
2023-03-10T12:12:36.693Z,11.90
2023-03-10T12:15:12.876Z,11.80
2023-03-10T12:17:41.268Z,11.60
2023-03-10T12:20:24.359Z,11.50
2023-03-10T12:22:55.776Z,11.70
2023-03-10T12:25:30.138Z,11.60
2023-03-10T12:28:12.164Z,11.50
2023-03-10T12:30:47.764Z,11.60
2023-03-10T12:33:31.351Z,11.50
2023-03-10T12:36:19.713Z,11.60
2023-03-10T12:38:49.697Z,11.80
2023-03-10T12:41:31.989Z,11.80
2023-03-10T12:43:59.805Z,11.70
2023-03-10T12:46:41.826Z,11.60
2023-03-10T12:49:27.097Z,11.50
2023-03-10T12:52:16.793Z,11.30
2023-03-10T12:55:14.319Z,11.30
2023-03-10T12:58:00.556Z,11.20
2023-03-10T13:00:42.647Z,11.30
2023-03-10T13:03:10.593Z,11.60
2023-03-10T13:05:42.065Z,11.50
2023-03-10T13:08:18.483Z,11.30
2023-03-10T13:10:45.957Z,11.40
2023-03-10T13:13:17.273Z,11.30
2023-03-10T13:15:44.119Z,11.20
2023-03-10T13:18:26.532Z,11.10
2023-03-10T13:20:53.569Z,11.00
2023-03-10T13:23:29.465Z,11.00
2023-03-10T13:25:59.086Z,10.90
2023-03-10T13:28:28.574Z,10.90
2023-03-10T13:31:18.370Z,10.80
2023-03-10T13:33:53.167Z,10.70
2023-03-10T13:36:31.560Z,10.60
2023-03-10T13:39:03.262Z,10.30
2023-03-10T13:41:37.232Z,10.30
2023-03-10T13:44:04.063Z,10.20
2023-03-10T13:46:33.086Z,10.20
2023-03-10T13:49:06.473Z,10.40
2023-03-10T13:51:35.818Z,10.50
2023-03-10T13:54:20.518Z,10.60
2023-03-10T13:56:51.262Z,10.40
2023-03-10T13:59:24.366Z,10.30
2023-03-10T14:01:55.592Z,10.30
2023-03-10T14:04:40.500Z,10.20
2023-03-10T14:07:20.657Z,10.20
2023-03-10T14:10:10.409Z,10.00
2023-03-10T14:12:44.813Z,10.20
2023-03-10T14:15:24.461Z,10.20
2023-03-10T14:18:06.717Z,10.30
2023-03-10T14:20:42.837Z,10.40
2023-03-10T14:23:26.586Z,10.10
2023-03-10T14:25:55.867Z,10.10
2023-03-10T14:28:26.455Z,10.10
2023-03-10T14:30:54.064Z,10.00
2023-03-10T14:33:21.022Z,9.90
2023-03-10T14:35:47.912Z,9.70
2023-03-10T14:38:14.756Z,9.60
2023-03-10T14:40:45.318Z,9.60
2023-03-10T14:43:22.265Z,9.70
2023-03-10T14:45:50.920Z,9.60
2023-03-10T14:48:21.049Z,9.60
2023-03-10T14:50:48.567Z,9.60
2023-03-10T14:53:19.204Z,9.60
2023-03-10T14:55:48.233Z,9.60
2023-03-10T14:58:19.988Z,9.60
2023-03-10T15:00:47.562Z,9.50
2023-03-10T15:03:15.107Z,9.30
2023-03-10T15:05:48.639Z,9.30
2023-03-10T15:08:17.103Z,9.10
2023-03-10T15:10:48.366Z,9.10
2023-03-10T15:13:18.164Z,9.10
2023-03-10T15:15:47.058Z,9.10
2023-03-10T15:18:16.992Z,9.10
2023-03-10T15:20:43.842Z,9.10
2023-03-10T15:23:13.036Z,9.10
2023-03-10T15:25:41.979Z,9.10
2023-03-10T15:28:10.663Z,9.20
2023-03-10T15:30:37.854Z,9.00
2023-03-10T15:33:05.029Z,8.90
2023-03-10T15:35:32.747Z,8.80
2023-03-10T15:37:59.674Z,8.70
2023-03-10T15:40:28.731Z,8.60
2023-03-10T15:42:59.808Z,8.60
2023-03-10T15:45:29.031Z,8.50
2023-03-10T15:47:56.970Z,8.50
2023-03-10T15:50:24.273Z,8.40
2023-03-10T15:52:53.786Z,8.40
2023-03-10T15:55:21.039Z,8.40
2023-03-10T15:57:49.866Z,8.40
2023-03-10T16:00:18.265Z,8.40
2023-03-10T16:02:46.459Z,8.30
2023-03-10T16:05:14.162Z,8.30
2023-03-10T16:07:41.057Z,8.20
2023-03-10T16:10:11.145Z,8.20
2023-03-10T16:12:37.983Z,8.20
2023-03-10T16:15:05.383Z,8.20
2023-03-10T16:17:32.306Z,8.20
2023-03-10T16:20:02.067Z,8.30
2023-03-10T16:22:29.147Z,8.30
2023-03-10T16:24:56.264Z,8.40
2023-03-10T16:27:23.398Z,8.40
2023-03-10T16:29:50.296Z,8.40
2023-03-10T16:32:19.780Z,8.40
2023-03-10T16:34:46.868Z,8.40
2023-03-10T16:37:13.785Z,8.40
2023-03-10T16:39:40.736Z,8.40
2023-03-10T16:42:07.726Z,8.40
2023-03-10T16:44:35.514Z,8.30
2023-03-10T16:47:02.419Z,8.30
2023-03-10T16:49:31.995Z,8.20
2023-03-10T16:51:59.784Z,8.10
2023-03-10T16:54:26.706Z,8.00
2023-03-10T16:56:57.019Z,7.80
2023-03-10T16:59:25.131Z,7.70
2023-03-10T17:01:52.203Z,7.60
2023-03-10T17:04:21.500Z,7.50
2023-03-10T17:06:48.812Z,7.40
2023-03-10T17:09:16.694Z,7.20
2023-03-10T17:11:46.857Z,7.10
2023-03-10T17:14:15.567Z,7.10
2023-03-10T17:16:44.612Z,7.00
2023-03-10T17:19:14.309Z,7.00
2023-03-10T17:21:46.576Z,6.90
2023-03-10T17:24:15.927Z,6.90
2023-03-10T17:26:43.129Z,6.80
2023-03-10T17:29:10.174Z,6.80
2023-03-10T17:31:37.551Z,6.90
2023-03-10T17:34:07.640Z,6.80
2023-03-10T17:36:34.778Z,6.80
2023-03-10T17:39:03.694Z,6.80
2023-03-10T17:41:31.962Z,6.70
2023-03-10T17:43:59.119Z,6.70
2023-03-10T17:46:28.857Z,6.60
2023-03-10T17:48:56.594Z,6.50
2023-03-10T17:51:26.627Z,6.30
2023-03-10T17:53:54.100Z,6.10
2023-03-10T17:56:22.093Z,6.10
2023-03-10T17:58:49.698Z,6.00
2023-03-10T18:01:20.034Z,5.90
2023-03-10T18:03:48.441Z,5.90
2023-03-10T18:06:19.239Z,5.90
2023-03-10T18:08:46.734Z,5.90
2023-03-10T18:11:13.930Z,5.90
2023-03-10T18:13:40.770Z,5.90
2023-03-10T18:16:14.264Z,6.00
2023-03-10T18:18:41.083Z,5.80
2023-03-10T18:21:09.939Z,5.80
2023-03-10T18:23:36.804Z,5.90
2023-03-10T18:26:09.299Z,6.00
2023-03-10T18:28:36.415Z,6.10
2023-03-10T18:31:07.683Z,6.10
2023-03-10T18:33:35.034Z,6.00
2023-03-10T18:36:04.039Z,5.90
2023-03-10T18:38:30.769Z,5.90
2023-03-10T18:41:00.539Z,5.80
2023-03-10T18:43:29.154Z,5.80
2023-03-10T18:45:56.488Z,5.70
2023-03-10T18:48:28.596Z,5.60
2023-03-10T18:50:57.519Z,5.50
2023-03-10T18:53:25.385Z,5.30
2023-03-10T18:55:53.422Z,5.20
2023-03-10T18:58:20.999Z,5.10
2023-03-10T19:00:48.084Z,5.00
2023-03-10T19:03:15.190Z,5.00
2023-03-10T19:05:42.346Z,5.00
2023-03-10T19:08:10.506Z,5.00
2023-03-10T19:10:39.512Z,5.10
2023-03-10T19:13:08.014Z,5.10
2023-03-10T19:15:36.603Z,5.10
2023-03-10T19:18:04.501Z,5.10
2023-03-10T19:20:31.349Z,5.00
2023-03-10T19:22:58.130Z,4.90
2023-03-10T19:25:24.970Z,4.90
2023-03-10T19:27:51.791Z,4.90
2023-03-10T19:30:20.630Z,4.90
2023-03-10T19:32:48.329Z,4.80
2023-03-10T19:35:16.649Z,4.70
2023-03-10T19:37:43.653Z,4.70
2023-03-10T19:40:16.028Z,4.70
2023-03-10T19:42:43.686Z,4.70
2023-03-10T19:45:12.689Z,4.70
2023-03-10T19:47:39.947Z,4.80
2023-03-10T19:50:07.513Z,4.90
2023-03-10T19:52:34.551Z,4.90
2023-03-10T19:55:01.667Z,5.00
2023-03-10T19:57:28.718Z,5.00
2023-03-10T19:59:55.482Z,5.00
2023-03-10T20:02:24.810Z,4.90
2023-03-10T20:04:51.797Z,4.80
2023-03-10T20:07:18.675Z,4.70
2023-03-10T20:09:45.484Z,4.60
2023-03-10T20:12:12.381Z,4.50
2023-03-10T20:14:39.168Z,4.60
2023-03-10T20:17:06.541Z,4.50
2023-03-10T20:19:33.324Z,4.50
2023-03-10T20:22:00.100Z,4.60
2023-03-10T20:24:26.953Z,4.60
2023-03-10T20:26:53.782Z,4.70
2023-03-10T20:29:20.640Z,4.70
2023-03-10T20:31:47.535Z,4.70
2023-03-10T20:34:18.338Z,4.70
2023-03-10T20:36:45.199Z,4.70
2023-03-10T20:39:12.099Z,4.70
2023-03-10T20:41:39.062Z,4.70
2023-03-10T20:44:09.558Z,4.70
2023-03-10T20:46:36.405Z,4.60
2023-03-10T20:49:05.886Z,4.60
2023-03-10T20:51:32.737Z,4.50
2023-03-10T20:53:59.688Z,4.50
2023-03-10T20:56:26.706Z,4.50
2023-03-10T20:58:59.220Z,4.50
2023-03-10T21:01:27.194Z,4.50
2023-03-10T21:03:54.798Z,4.40
2023-03-10T21:06:23.713Z,4.40
2023-03-10T21:08:50.677Z,4.40
2023-03-10T21:11:20.517Z,4.30
2023-03-10T21:13:47.485Z,4.40
2023-03-10T21:16:14.619Z,4.40
2023-03-10T21:18:41.521Z,4.40
2023-03-10T21:21:09.706Z,4.30
2023-03-10T21:23:38.422Z,3.70
2023-03-10T21:26:16.941Z,3.10
2023-03-10T21:28:44.365Z,2.90
2023-03-10T21:31:11.736Z,2.90
2023-03-10T21:33:41.652Z,2.90
2023-03-10T21:36:13.984Z,2.90
2023-03-10T21:38:41.095Z,3.00
2023-03-10T21:41:08.927Z,3.10
2023-03-10T21:43:36.170Z,3.30
2023-03-10T21:46:03.108Z,3.40
2023-03-10T21:48:29.987Z,3.40
2023-03-10T21:50:56.823Z,3.40
2023-03-10T21:53:26.706Z,3.40
2023-03-10T21:55:54.437Z,3.40
2023-03-10T21:58:28.072Z,3.40
2023-03-10T22:00:56.258Z,3.40
2023-03-10T22:03:23.343Z,3.40
2023-03-10T22:05:50.543Z,3.50
2023-03-10T22:08:17.455Z,3.40
2023-03-10T22:10:45.549Z,3.40
2023-03-10T22:13:12.393Z,3.40
2023-03-10T22:15:39.569Z,3.40
2023-03-10T22:18:06.466Z,3.40
2023-03-10T22:20:33.441Z,3.40
2023-03-10T22:23:00.300Z,3.40
2023-03-10T22:25:27.202Z,3.40
2023-03-10T22:27:56.327Z,3.40
2023-03-10T22:30:25.415Z,3.40
2023-03-10T22:32:52.422Z,3.40
2023-03-10T22:35:19.441Z,3.30
2023-03-10T22:37:46.290Z,3.30
2023-03-10T22:40:16.307Z,3.30
2023-03-10T22:42:44.652Z,3.20
2023-03-10T22:45:25.386Z,3.20
2023-03-10T22:47:54.254Z,3.20
2023-03-10T22:50:24.597Z,3.10
2023-03-10T22:52:51.519Z,3.10
2023-03-10T22:55:21.570Z,3.10
2023-03-10T22:57:48.308Z,3.10
2023-03-10T23:00:19.894Z,3.10
2023-03-10T23:02:47.883Z,3.10
2023-03-10T23:05:15.958Z,3.00
2023-03-10T23:07:43.937Z,2.90
2023-03-10T23:10:21.151Z,2.90
2023-03-10T23:12:49.188Z,2.80
2023-03-10T23:15:25.285Z,2.80
2023-03-10T23:17:54.152Z,2.80
2023-03-10T23:20:24.155Z,2.70
2023-03-10T23:22:51.201Z,2.60
2023-03-10T23:25:21.837Z,2.60
2023-03-10T23:27:48.675Z,2.60
2023-03-10T23:30:17.142Z,2.60
2023-03-10T23:32:45.899Z,2.50
2023-03-10T23:35:15.244Z,2.50
2023-03-10T23:37:42.189Z,2.50
2023-03-10T23:40:13.665Z,2.50
2023-03-10T23:42:41.913Z,2.50
2023-03-10T23:45:11.759Z,2.50
2023-03-10T23:47:39.024Z,2.40
2023-03-10T23:50:08.598Z,2.40
2023-03-10T23:52:35.584Z,2.30
2023-03-10T23:55:02.432Z,2.30
2023-03-10T23:57:29.272Z,2.30
2023-03-10T23:59:56.121Z,2.30
